Aérodrome :
LOGIN :

S'inscrire | Disclaimer

   EN    FR    IT 

 










Légende :    VFR   VFR Marginal   IFR   IFR Intensif   IFR Très Intensif
Visi : 
Plafond : 
>= 8 km
>= 3000ft
5 à 8 km
1000 à 3000 ft
1500m à 5 km
500 à 1000 ft
800 à 1500m
200 à 500 ft
< 800m
< 200 ft
Symboles :   Orages  Brouillard  Fortes neiges  Fortes précipitations  Vent > 20 kt
SIGMETs :   Divers  Orages  Givrage  Turbulence  Onde Orograph.  Cendres Volcan.






- Altitude de l'aérodrome : 39 ft


ETNH - Hohn AB

DERNIER METAR :
  • 202120Z 28020G31KT 6000 -RA BKN012 OVC028 05/04 Q1001 RERA GRN

METARs EXPIRÉS :
  • 202056Z 24018G40KT 5000 RA BR BKN010 OVC020 07/06 Q1000 GRN
  • 202020Z 20016KT 5000 -RA BR BKN013 OVC023 07/06 Q0999 GRN
  • 201920Z 19014KT 8000 -RA FEW019 BKN024 07/05 Q1001 WHT

TAF AMD TAF ETNH
Valide du 20 à 15h jusqu'au 21 à 00h UTC


201555Z 2015/2024 20015KT 8000 NSW SCT020 BKN040
TEMPO 2015/2018 19015G25KT 4000 -DZ BKN010
TEMPO 2018/2020 20020G35KT 4000 -RA BKN010
BECMG 2020/2022 29015G30KT 8000 NSW SCT010 BKN020
TEMPO 2020/2024 27020G40KT 3700 RA BKN010 BKN020
PROB30 2021/2024 28020G45KT 3000 SHRA BKN010CB BY ETGL



MET'MAP, la Météo Aéronautique d'un coup d'oeil ! - Copyright ORBIFLY Décembre 2007 - Disclaimer

ORBIFLY MET'MAP TEAM :

Programmation & Développement : Alexandra Zaïnal
Sur une idée originale de : Baudouin d'Aumeries
Assistance à la programmation : Marc-Olivier Méhu
Soutien technique & logistique : Manuel Goepfert

Contact : metmap@orbifly.com




SOURCES & CREDITS :

   NOAA